Flugplatz Ahrenlohe (EDHO)

Hier findest Du alle Informationen zum Flugplatz Ahrenlohe (EDHO).

Informationen für Piloten zum Flugplatz Ahrenlohe

Hier findest Du alle relevanten Informationen, die Du als Pilot benötigst, um Ahrenlohe anzufliegen.

Flugplatz: Ahrenlohe ICAO-Code: EDHO
Frequenz Turm: 122,600 Mhz GAFOR Gebiet: 3
Frequenz Ground: 122,600 Mhz Mogas: nein
Platzrunde: SE 1000 ft Landegebühr: -
Platzhöhe: 33 ft Sunrise: 06:05 Uhr UTC
Pisten: 05/23 - 500 m x 15 m, ASPH Sunset: 17:00 Uhr UTC

Flugwetter am Flugplatz Ahrenlohe

Die METAR Information stammen aus EDDH (18.06 km entfernt).

METAR Code:
2024/02/29 00:20
EDDH 290020Z AUTO 15009KT CAVOK 04/02 Q1018 NOSIG

Flugschulen am Flugplatz Ahrenlohe

Am Flugplatz Ahrenlohe gibt es leider keine Flugschule.

Benachbarte Flugplätze und Flugschulen

Es gibt 9 weitere Flugplätze in einem Umkreis von 50 km um den Flugplatz Ahrenlohe.

Jetzt anmelden

Passwort vergessen

Umfrage Archiv

Wie häufig haltet Ihr die Halbkreisflugregel ein?

Eher häufig!
34.9 %
Immer!
33 %
Hin und wieder!
15.3 %
Nie!
10 %
Eher selten!
6.7 %
Stimmen: 209 | Diskussion
Anzeige: Roland Aircraft
Statistik Alle Mitglieder

Aktuell sind 11 Besucher online, davon 2 Mitglieder und 9 Gäste.


Mitglieder online:
Steffen_E  Uli-Light 

Anzeige: EasyVFR